sensor_id;sensor_type;location;lat;lon;timestamp;pressure;altitude;pressure_sealevel;temperature
27815;BMP280;15190;52.122;9.956;2023-04-29T00:01:58;99839.03;;;14.64
27815;BMP280;15190;52.122;9.956;2023-04-29T00:04:25;99840.72;;;14.63
27815;BMP280;15190;52.122;9.956;2023-04-29T00:06:53;99841.50;;;14.61
27815;BMP280;15190;52.122;9.956;2023-04-29T00:09:20;99837.28;;;14.61
27815;BMP280;15190;52.122;9.956;2023-04-29T00:11:46;99836.44;;;14.62
27815;BMP280;15190;52.122;9.956;2023-04-29T00:14:12;99839.81;;;14.61
27815;BMP280;15190;52.122;9.956;2023-04-29T00:16:38;99837.25;;;14.60
27815;BMP280;15190;52.122;9.956;2023-04-29T00:19:04;99836.41;;;14.61
27815;BMP280;15190;52.122;9.956;2023-04-29T00:21:30;99837.25;;;14.60
27815;BMP280;15190;52.122;9.956;2023-04-29T00:23:57;99850.78;;;14.59
27815;BMP280;15190;52.122;9.956;2023-04-29T00:26:23;99843.13;;;14.57
27815;BMP280;15190;52.122;9.956;2023-04-29T00:28:50;99857.53;;;14.57
27815;BMP280;15190;52.122;9.956;2023-04-29T00:31:15;99847.31;;;14.55
27815;BMP280;15190;52.122;9.956;2023-04-29T00:33:41;99847.22;;;14.51
27815;BMP280;15190;52.122;9.956;2023-04-29T00:36:07;99848.81;;;14.47
27815;BMP280;15190;52.122;9.956;2023-04-29T00:38:34;99855.41;;;14.38
27815;BMP280;15190;52.122;9.956;2023-04-29T00:41:00;99850.22;;;14.35
27815;BMP280;15190;52.122;9.956;2023-04-29T00:43:25;99852.69;;;14.31
27815;BMP280;15190;52.122;9.956;2023-04-29T00:45:51;99865.41;;;14.31
27815;BMP280;15190;52.122;9.956;2023-04-29T00:48:18;99855.09;;;14.26
27815;BMP280;15190;52.122;9.956;2023-04-29T00:50:43;99860.13;;;14.23
27815;BMP280;15190;52.122;9.956;2023-04-29T00:53:10;99860.97;;;14.24
27815;BMP280;15190;52.122;9.956;2023-04-29T00:55:40;99866.97;;;14.26
27815;BMP280;15190;52.122;9.956;2023-04-29T00:58:07;99862.69;;;14.25
27815;BMP280;15190;52.122;9.956;2023-04-29T01:00:34;99864.38;;;14.24
27815;BMP280;15190;52.122;9.956;2023-04-29T01:03:00;99866.88;;;14.21
27815;BMP280;15190;52.122;9.956;2023-04-29T01:05:26;99872.75;;;14.20
27815;BMP280;15190;52.122;9.956;2023-04-29T01:11:07;99871.78;;;14.15
27815;BMP280;15190;52.122;9.956;2023-04-29T01:13:39;99880.25;;;14.14
27815;BMP280;15190;52.122;9.956;2023-04-29T01:16:10;99886.16;;;14.13
27815;BMP280;15190;52.122;9.956;2023-04-29T01:18:42;99889.53;;;14.14
27815;BMP280;15190;52.122;9.956;2023-04-29T01:21:10;99894.56;;;14.11
27815;BMP280;15190;52.122;9.956;2023-04-29T01:23:36;99896.28;;;14.12
27815;BMP280;15190;52.122;9.956;2023-04-29T01:26:02;99894.56;;;14.11
27815;BMP280;15190;52.122;9.956;2023-04-29T01:34:13;99890.25;;;14.08
27815;BMP280;15190;52.122;9.956;2023-04-29T01:36:51;99900.38;;;14.06
27815;BMP280;15190;52.122;9.956;2023-04-29T01:39:44;99902.81;;;14.03
27815;BMP280;15190;52.122;9.956;2023-04-29T01:44:54;99901.16;;;14.05
27815;BMP280;15190;52.122;9.956;2023-04-29T01:47:20;99905.44;;;14.06
27815;BMP280;15190;52.122;9.956;2023-04-29T01:49:48;99903.72;;;14.05
27815;BMP280;15190;52.122;9.956;2023-04-29T01:52:14;99907.09;;;14.04
27815;BMP280;15190;52.122;9.956;2023-04-29T01:54:39;99908.78;;;14.05
27815;BMP280;15190;52.122;9.956;2023-04-29T01:57:05;99913.88;;;14.05
27815;BMP280;15190;52.122;9.956;2023-04-29T01:59:31;99912.97;;;14.03
27815;BMP280;15190;52.122;9.956;2023-04-29T02:01:57;99924.88;;;14.04
27815;BMP280;15190;52.122;9.956;2023-04-29T02:04:26;99913.84;;;14.03
27815;BMP280;15190;52.122;9.956;2023-04-29T02:06:53;99919.81;;;14.04
27815;BMP280;15190;52.122;9.956;2023-04-29T02:09:19;99923.16;;;14.03
27815;BMP280;15190;52.122;9.956;2023-04-29T02:11:44;99944.31;;;14.02
27815;BMP280;15190;52.122;9.956;2023-04-29T02:14:10;99943.41;;;14.01
27815;BMP280;15190;52.122;9.956;2023-04-29T02:16:37;99936.63;;;14.00
27815;BMP280;15190;52.122;9.956;2023-04-29T02:19:03;99944.19;;;13.99
27815;BMP280;15190;52.122;9.956;2023-04-29T02:21:28;99939.13;;;13.99
27815;BMP280;15190;52.122;9.956;2023-04-29T02:23:54;99945.00;;;13.98
27815;BMP280;15190;52.122;9.956;2023-04-29T02:26:20;99934.84;;;13.98
27815;BMP280;15190;52.122;9.956;2023-04-29T02:28:46;99938.25;;;13.98
27815;BMP280;15190;52.122;9.956;2023-04-29T02:31:12;99938.25;;;13.98
27815;BMP280;15190;52.122;9.956;2023-04-29T02:33:38;99945.00;;;13.98
27815;BMP280;15190;52.122;9.956;2023-04-29T02:36:04;99946.69;;;13.97
27815;BMP280;15190;52.122;9.956;2023-04-29T02:38:30;99944.13;;;13.96
27815;BMP280;15190;52.122;9.956;2023-04-29T02:40:56;99947.50;;;13.95
27815;BMP280;15190;52.122;9.956;2023-04-29T02:43:22;99950.84;;;13.94
27815;BMP280;15190;52.122;9.956;2023-04-29T02:45:48;99959.31;;;13.93
27815;BMP280;15190;52.122;9.956;2023-04-29T02:48:13;99960.94;;;13.91
27815;BMP280;15190;52.122;9.956;2023-04-29T02:50:40;99959.25;;;13.91
27815;BMP280;15190;52.122;9.956;2023-04-29T02:53:06;99955.88;;;13.91
27815;BMP280;15190;52.122;9.956;2023-04-29T02:55:32;99964.34;;;13.91
27815;BMP280;15190;52.122;9.956;2023-04-29T02:57:58;99954.97;;;13.90
27815;BMP280;15190;52.122;9.956;2023-04-29T03:00:24;99956.66;;;13.90
27815;BMP280;15190;52.122;9.956;2023-04-29T03:02:50;99955.88;;;13.91
27815;BMP280;15190;52.122;9.956;2023-04-29T03:05:16;99949.91;;;13.90
27815;BMP280;15190;52.122;9.956;2023-04-29T03:07:42;99957.41;;;13.86
27815;BMP280;15190;52.122;9.956;2023-04-29T03:10:08;99960.75;;;13.85
27815;BMP280;15190;52.122;9.956;2023-04-29T03:12:34;99955.63;;;13.82
27815;BMP280;15190;52.122;9.956;2023-04-29T03:15:00;99956.31;;;13.78
27815;BMP280;15190;52.122;9.956;2023-04-29T03:17:26;99962.28;;;13.78
27815;BMP280;15190;52.122;9.956;2023-04-29T03:19:52;99960.59;;;13.79
27815;BMP280;15190;52.122;9.956;2023-04-29T03:22:19;99962.25;;;13.77
27815;BMP280;15190;52.122;9.956;2023-04-29T03:24:44;99956.31;;;13.76
27815;BMP280;15190;52.122;9.956;2023-04-29T03:27:10;99969.03;;;13.76
27815;BMP280;15190;52.122;9.956;2023-04-29T03:29:36;99960.41;;;13.71
27815;BMP280;15190;52.122;9.956;2023-04-29T03:32:02;99967.19;;;13.72
27815;BMP280;15190;52.122;9.956;2023-04-29T03:34:28;99968.78;;;13.69
27815;BMP280;15190;52.122;9.956;2023-04-29T03:36:55;99980.69;;;13.70
27815;BMP280;15190;52.122;9.956;2023-04-29T03:39:22;99978.88;;;13.66
27815;BMP280;15190;52.122;9.956;2023-04-29T03:41:47;99986.41;;;13.63
27815;BMP280;15190;52.122;9.956;2023-04-29T03:44:13;99988.84;;;13.59
27815;BMP280;15190;52.122;9.956;2023-04-29T03:46:39;99985.34;;;13.55
27815;BMP280;15190;52.122;9.956;2023-04-29T03:49:05;99982.81;;;13.55
27815;BMP280;15190;52.122;9.956;2023-04-29T03:51:31;99987.88;;;13.55
27815;BMP280;15190;52.122;9.956;2023-04-29T03:53:57;99987.84;;;13.54
27815;BMP280;15190;52.122;9.956;2023-04-29T03:56:23;99997.13;;;13.53
27815;BMP280;15190;52.122;9.956;2023-04-29T03:58:52;99992.06;;;13.53
27815;BMP280;15190;52.122;9.956;2023-04-29T04:01:18;100000.44;;;13.51
27815;BMP280;15190;52.122;9.956;2023-04-29T04:03:44;100006.25;;;13.47
27815;BMP280;15190;52.122;9.956;2023-04-29T04:06:10;100008.78;;;13.47
27815;BMP280;15190;52.122;9.956;2023-04-29T04:08:36;100013.88;;;13.47
27815;BMP280;15190;52.122;9.956;2023-04-29T04:11:02;100017.94;;;13.42
27815;BMP280;15190;52.122;9.956;2023-04-29T04:13:29;100020.25;;;13.34
27815;BMP280;15190;52.122;9.956;2023-04-29T04:15:55;100031.25;;;13.33
27815;BMP280;15190;52.122;9.956;2023-04-29T04:18:20;100030.38;;;13.33
27815;BMP280;15190;52.122;9.956;2023-04-29T04:20:46;100037.22;;;13.35
27815;BMP280;15190;52.122;9.956;2023-04-29T04:23:13;100043.78;;;13.29
27815;BMP280;15190;52.122;9.956;2023-04-29T04:25:45;100050.44;;;13.26
27815;BMP280;15190;52.122;9.956;2023-04-29T04:28:12;100059.53;;;13.18
27815;BMP280;15190;52.122;9.956;2023-04-29T04:30:37;100055.91;;;13.11
27815;BMP280;15190;52.122;9.956;2023-04-29T04:33:03;100057.47;;;13.06
27815;BMP280;15190;52.122;9.956;2023-04-29T04:35:29;100070.97;;;13.05
27815;BMP280;15190;52.122;9.956;2023-04-29T04:37:56;100064.81;;;12.99
27815;BMP280;15190;52.122;9.956;2023-04-29T04:40:22;100080.06;;;12.99
27815;BMP280;15190;52.122;9.956;2023-04-29T04:42:47;100085.84;;;12.95
27815;BMP280;15190;52.122;9.956;2023-04-29T04:45:13;100090.97;;;12.96
27815;BMP280;15190;52.122;9.956;2023-04-29T04:47:39;100089.81;;;12.87
27815;BMP280;15190;52.122;9.956;2023-04-29T04:50:07;100088.88;;;12.84
27815;BMP280;15190;52.122;9.956;2023-04-29T04:52:33;100095.41;;;12.79
27815;BMP280;15190;52.122;9.956;2023-04-29T04:54:59;100097.25;;;12.81
27815;BMP280;15190;52.122;9.956;2023-04-29T04:57:25;100110.94;;;12.86
27815;BMP280;15190;52.122;9.956;2023-04-29T04:59:51;100115.25;;;12.88
27815;BMP280;15190;52.122;9.956;2023-04-29T05:02:17;100116.06;;;12.88
27815;BMP280;15190;52.122;9.956;2023-04-29T05:04:43;100123.66;;;12.88
27815;BMP280;15190;52.122;9.956;2023-04-29T05:07:09;100126.13;;;12.85
27815;BMP280;15190;52.122;9.956;2023-04-29T05:09:35;100122.69;;;12.84
27815;BMP280;15190;52.122;9.956;2023-04-29T05:12:02;100120.16;;;12.84
27815;BMP280;15190;52.122;9.956;2023-04-29T05:14:28;100130.31;;;12.84
27815;BMP280;15190;52.122;9.956;2023-04-29T05:17:00;100131.28;;;12.88
27815;BMP280;15190;52.122;9.956;2023-04-29T05:19:25;100134.53;;;12.84
27815;BMP280;15190;52.122;9.956;2023-04-29T05:21:51;100144.56;;;12.81
27815;BMP280;15190;52.122;9.956;2023-04-29T05:24:18;100135.38;;;12.84
27815;BMP280;15190;52.122;9.956;2023-04-29T05:26:43;100148.91;;;12.83
27815;BMP280;15190;52.122;9.956;2023-04-29T05:29:10;100149.47;;;12.76
27815;BMP280;15190;52.122;9.956;2023-04-29T05:31:36;100156.16;;;12.74
27815;BMP280;15190;52.122;9.956;2023-04-29T05:34:03;100154.28;;;12.69
27815;BMP280;15190;52.122;9.956;2023-04-29T05:36:30;100160.00;;;12.63
27815;BMP280;15190;52.122;9.956;2023-04-29T05:38:56;100160.97;;;12.67
27815;BMP280;15190;52.122;9.956;2023-04-29T05:41:22;100161.91;;;12.69
27815;BMP280;15190;52.122;9.956;2023-04-29T05:43:50;100164.00;;;12.57
27815;BMP280;15190;52.122;9.956;2023-04-29T05:46:16;100173.41;;;12.59
27815;BMP280;15190;52.122;9.956;2023-04-29T05:48:42;100167.69;;;12.65
27815;BMP280;15190;52.122;9.956;2023-04-29T05:51:08;100181.28;;;12.67
27815;BMP280;15190;52.122;9.956;2023-04-29T05:53:33;100172.59;;;12.60
27815;BMP280;15190;52.122;9.956;2023-04-29T05:56:00;100178.47;;;12.59
27815;BMP280;15190;52.122;9.956;2023-04-29T05:58:31;100188.63;;;12.59
27815;BMP280;15190;52.122;9.956;2023-04-29T06:00:56;100191.09;;;12.58
27815;BMP280;15190;52.122;9.956;2023-04-29T06:03:22;100190.19;;;12.56
27815;BMP280;15190;52.122;9.956;2023-04-29T06:05:49;100196.13;;;12.56
27815;BMP280;15190;52.122;9.956;2023-04-29T06:08:14;100199.22;;;12.49
27815;BMP280;15190;52.122;9.956;2023-04-29T06:10:40;100202.56;;;12.48
27815;BMP280;15190;52.122;9.956;2023-04-29T06:13:06;100209.31;;;12.48
27815;BMP280;15190;52.122;9.956;2023-04-29T06:15:32;100213.41;;;12.45
27815;BMP280;15190;52.122;9.956;2023-04-29T06:17:58;100216.06;;;12.48
27815;BMP280;15190;52.122;9.956;2023-04-29T06:20:24;100228.00;;;12.50
27815;BMP280;15190;52.122;9.956;2023-04-29T06:22:50;100223.63;;;12.46
27815;BMP280;15190;52.122;9.956;2023-04-29T06:25:16;100226.28;;;12.49
27815;BMP280;15190;52.122;9.956;2023-04-29T06:27:42;100228.97;;;12.53
27815;BMP280;15190;52.122;9.956;2023-04-29T06:30:08;100240.84;;;12.54
27815;BMP280;15190;52.122;9.956;2023-04-29T06:32:34;100244.13;;;12.52
27815;BMP280;15190;52.122;9.956;2023-04-29T06:35:00;100240.56;;;12.47
27815;BMP280;15190;52.122;9.956;2023-04-29T06:37:26;100241.03;;;12.37
27815;BMP280;15190;52.122;9.956;2023-04-29T06:39:53;100242.44;;;12.29
27815;BMP280;15190;52.122;9.956;2023-04-29T06:42:19;100247.50;;;12.29
27815;BMP280;15190;52.122;9.956;2023-04-29T06:44:45;100261.88;;;12.29
27815;BMP280;15190;52.122;9.956;2023-04-29T06:47:11;100263.69;;;12.33
27815;BMP280;15190;52.122;9.956;2023-04-29T06:49:37;100274.75;;;12.35
27815;BMP280;15190;52.122;9.956;2023-04-29T06:52:03;100276.47;;;12.36
27815;BMP280;15190;52.122;9.956;2023-04-29T06:54:28;100281.50;;;12.34
27815;BMP280;15190;52.122;9.956;2023-04-29T06:56:54;100281.66;;;12.39
27815;BMP280;15190;52.122;9.956;2023-04-29T06:59:20;100291.88;;;12.40
27815;BMP280;15190;52.122;9.956;2023-04-29T07:01:46;100300.19;;;12.36
27815;BMP280;15190;52.122;9.956;2023-04-29T07:04:12;100307.81;;;12.38
27815;BMP280;15190;52.122;9.956;2023-04-29T07:06:38;100308.44;;;12.32
27815;BMP280;15190;52.122;9.956;2023-04-29T07:09:03;100317.50;;;12.26
27815;BMP280;15190;52.122;9.956;2023-04-29T07:11:29;100326.88;;;12.28
27815;BMP280;15190;52.122;9.956;2023-04-29T07:13:55;100332.03;;;12.30
27815;BMP280;15190;52.122;9.956;2023-04-29T07:16:21;100340.69;;;12.35
27815;BMP280;15190;52.122;9.956;2023-04-29T07:18:50;100336.25;;;12.29
27815;BMP280;15190;52.122;9.956;2023-04-29T07:21:17;100344.94;;;12.36
27815;BMP280;15190;52.122;9.956;2023-04-29T07:23:43;100350.81;;;12.35
27815;BMP280;15190;52.122;9.956;2023-04-29T07:26:13;100356.47;;;12.28
27815;BMP280;15190;52.122;9.956;2023-04-29T07:28:41;100362.38;;;12.28
27815;BMP280;15190;52.122;9.956;2023-04-29T07:31:07;100374.34;;;12.31
27815;BMP280;15190;52.122;9.956;2023-04-29T07:33:34;100370.25;;;12.34
27815;BMP280;15190;52.122;9.956;2023-04-29T07:36:01;100372.78;;;12.34
27815;BMP280;15190;52.122;9.956;2023-04-29T07:38:27;100384.69;;;12.37
27815;BMP280;15190;52.122;9.956;2023-04-29T07:40:54;100377.09;;;12.37
27815;BMP280;15190;52.122;9.956;2023-04-29T07:43:20;100379.63;;;12.37
27815;BMP280;15190;52.122;9.956;2023-04-29T07:45:47;100393.31;;;12.40
27815;BMP280;15190;52.122;9.956;2023-04-29T07:48:13;100393.31;;;12.40
27815;BMP280;15190;52.122;9.956;2023-04-29T07:50:38;100393.38;;;12.42
27815;BMP280;15190;52.122;9.956;2023-04-29T07:53:05;100401.75;;;12.41
27815;BMP280;15190;52.122;9.956;2023-04-29T07:55:31;100406.06;;;12.43
27815;BMP280;15190;52.122;9.956;2023-04-29T07:57:57;100407.75;;;12.43
27815;BMP280;15190;52.122;9.956;2023-04-29T08:00:23;100406.16;;;12.45
27815;BMP280;15190;52.122;9.956;2023-04-29T08:02:53;100404.53;;;12.47
27815;BMP280;15190;52.122;9.956;2023-04-29T08:05:19;100412.97;;;12.46
27815;BMP280;15190;52.122;9.956;2023-04-29T08:07:46;100413.94;;;12.49
27815;BMP280;15190;52.122;9.956;2023-04-29T08:10:14;100414.03;;;12.52
27815;BMP280;15190;52.122;9.956;2023-04-29T08:12:40;100421.72;;;12.53
27815;BMP280;15190;52.122;9.956;2023-04-29T08:15:06;100420.00;;;12.52
27815;BMP280;15190;52.122;9.956;2023-04-29T08:17:32;100426.78;;;12.53
27815;BMP280;15190;52.122;9.956;2023-04-29T08:19:58;100429.34;;;12.53
